Time;durP1;ratioP1;P1;durP2;ratioP2;P2;SDS_P1;SDS_P2;PMS_P1;PMS_P2;Temp;Humidity;BMP_temperature;BMP_pressure;BME280_temperature;BME280_humidity;BME280_pressure;Samples;Min_cycle;Max_cycle;Signal;HPM_P1;HPM_P2
2022/12/01 00:00:45;;;;;;;46.72;24.85;;;;;;;;;;5032456;28;20021;-64
2022/12/01 00:03:11;;;;;;;52.28;24.90;;;;;;;;;;5032042;28;20036;-64
2022/12/01 00:05:37;;;;;;;45.88;25.42;;;;;;;;;;5031382;28;20021;-63
2022/12/01 00:08:04;;;;;;;49.35;24.45;;;;;;;;;;5031189;28;20025;-62
2022/12/01 00:10:30;;;;;;;49.67;25.67;;;;;;;;;;5032911;28;20021;-61
2022/12/01 00:12:58;;;;;;;53.53;25.85;;;;;;;;;;5032776;28;20030;-63
2022/12/01 00:15:29;;;;;;;59.00;27.55;;;;;;;;;;5031518;28;20029;-62
2022/12/01 00:17:55;;;;;;;45.15;26.25;;;;;;;;;;5032344;28;20045;-62
2022/12/01 00:20:21;;;;;;;50.90;26.15;;;;;;;;;;5032768;28;20033;-63
2022/12/01 00:22:48;;;;;;;59.97;28.25;;;;;;;;;;5030866;28;20033;-63
2022/12/01 00:25:15;;;;;;;54.90;26.52;;;;;;;;;;5030867;28;20532;-63
2022/12/01 00:27:41;;;;;;;54.33;26.25;;;;;;;;;;5032158;28;20022;-63
2022/12/01 00:30:10;;;;;;;52.97;25.58;;;;;;;;;;5031072;28;20370;-64
2022/12/01 00:32:36;;;;;;;61.83;26.73;;;;;;;;;;5030856;28;20026;-63
2022/12/01 00:35:03;;;;;;;52.67;26.25;;;;;;;;;;5031843;28;20512;-63
2022/12/01 00:37:36;;;;;;;61.10;27.67;;;;;;;;;;5032708;28;20037;-64
2022/12/01 00:40:05;;;;;;;56.65;26.85;;;;;;;;;;5033109;28;20056;-66
2022/12/01 00:42:31;;;;;;;57.03;28.20;;;;;;;;;;5031426;28;20033;-64
2022/12/01 00:44:57;;;;;;;56.38;27.85;;;;;;;;;;5030484;28;20021;-65
2022/12/01 00:47:23;;;;;;;57.92;28.73;;;;;;;;;;5031044;28;20476;-62
2022/12/01 00:49:51;;;;;;;53.65;25.50;;;;;;;;;;5032123;28;20026;-61
2022/12/01 00:52:17;;;;;;;56.00;26.38;;;;;;;;;;5035651;28;20103;-63
2022/12/01 00:54:43;;;;;;;50.45;26.33;;;;;;;;;;5036107;28;20032;-63
2022/12/01 00:57:10;;;;;;;56.80;27.50;;;;;;;;;;5034882;28;20119;-62
2022/12/01 00:59:36;;;;;;;52.30;25.75;;;;;;;;;;5034569;28;20041;-63
2022/12/01 01:02:03;;;;;;;53.05;29.48;;;;;;;;;;5034102;28;20550;-62
2022/12/01 01:04:30;;;;;;;51.78;26.00;;;;;;;;;;5035304;28;20066;-61
2022/12/01 01:06:56;;;;;;;45.92;24.85;;;;;;;;;;5035062;28;20104;-60
2022/12/01 01:09:22;;;;;;;54.78;25.40;;;;;;;;;;5035231;28;20070;-63
2022/12/01 01:11:48;;;;;;;51.08;26.05;;;;;;;;;;5035172;28;20112;-64
2022/12/01 01:14:14;;;;;;;51.92;24.92;;;;;;;;;;5033827;28;20037;-63
2022/12/01 01:16:40;;;;;;;51.58;26.52;;;;;;;;;;5033757;28;20071;-62
2022/12/01 01:19:06;;;;;;;48.72;24.92;;;;;;;;;;5034079;28;20120;-62
2022/12/01 01:21:32;;;;;;;45.63;25.10;;;;;;;;;;5033598;28;20171;-63
2022/12/01 01:23:58;;;;;;;44.50;24.33;;;;;;;;;;5033747;28;20026;-63
2022/12/01 01:26:26;;;;;;;51.80;25.27;;;;;;;;;;5034818;28;20108;-63
2022/12/01 01:28:52;;;;;;;46.67;23.63;;;;;;;;;;5034937;28;20022;-64
2022/12/01 01:31:20;;;;;;;51.80;25.70;;;;;;;;;;5034900;28;20145;-63
2022/12/01 01:33:46;;;;;;;41.97;23.27;;;;;;;;;;5033695;28;20467;-65
2022/12/01 01:36:13;;;;;;;40.35;22.70;;;;;;;;;;5033777;28;20037;-62
2022/12/01 01:38:39;;;;;;;48.05;25.17;;;;;;;;;;5034568;28;20396;-63
2022/12/01 01:41:06;;;;;;;42.33;22.05;;;;;;;;;;5034744;28;20112;-63
2022/12/01 01:43:47;;;;;;;39.47;22.30;;;;;;;;;;5034319;28;20022;-62
2022/12/01 01:46:17;;;;;;;41.05;22.05;;;;;;;;;;5033316;28;20029;-64
2022/12/01 01:48:46;;;;;;;40.15;23.67;;;;;;;;;;5034457;28;20084;-64
2022/12/01 01:51:13;;;;;;;45.92;23.70;;;;;;;;;;5034726;28;20049;-62
2022/12/01 01:53:40;;;;;;;42.53;24.33;;;;;;;;;;5034320;28;20116;-60
2022/12/01 01:56:07;;;;;;;44.53;23.55;;;;;;;;;;5034754;28;20429;-63
2022/12/01 01:58:33;;;;;;;43.83;24.77;;;;;;;;;;5034280;28;20025;-63
2022/12/01 02:00:59;;;;;;;47.58;24.45;;;;;;;;;;5034156;28;20030;-63
2022/12/01 02:03:26;;;;;;;45.05;24.08;;;;;;;;;;5033542;28;20100;-63
2022/12/01 02:05:53;;;;;;;47.42;25.08;;;;;;;;;;5034315;28;20025;-63
2022/12/01 02:08:18;;;;;;;44.67;24.20;;;;;;;;;;5034145;28;20562;-63
2022/12/01 02:11:03;;;;;;;50.83;26.30;;;;;;;;;;5034366;28;20034;-61
2022/12/01 02:13:35;;;;;;;49.55;27.70;;;;;;;;;;5033952;28;20056;-62
2022/12/01 02:16:12;;;;;;;49.50;25.00;;;;;;;;;;5032742;28;20022;-63
2022/12/01 02:18:47;;;;;;;45.25;25.05;;;;;;;;;;5034027;28;20029;-63
2022/12/01 02:21:16;;;;;;;48.03;25.02;;;;;;;;;;5034076;28;20489;-63
2022/12/01 02:23:42;;;;;;;42.53;23.90;;;;;;;;;;5032736;28;20029;-64
2022/12/01 02:26:20;;;;;;;47.35;25.38;;;;;;;;;;5033924;28;20641;-62
2022/12/01 02:28:46;;;;;;;;;;;;;;;;;;5033117;28;20191;-63
2022/12/01 02:31:17;;;;;;;45.63;23.20;;;;;;;;;;5032543;28;19928;-64
2022/12/01 02:33:50;;;;;;;43.60;22.67;;;;;;;;;;5033678;28;20017;-62
2022/12/01 02:36:22;;;;;;;45.00;23.77;;;;;;;;;;5032523;28;20032;-63
2022/12/01 02:38:55;;;;;;;41.40;22.23;;;;;;;;;;5033415;28;20156;-63
2022/12/01 02:41:39;;;;;;;45.75;25.25;;;;;;;;;;5032161;28;20084;-64
2022/12/01 02:44:10;;;;;;;40.40;22.67;;;;;;;;;;5033465;28;20021;-62
2022/12/01 02:46:40;;;;;;;39.90;21.83;;;;;;;;;;5033585;28;20363;-63
2022/12/01 02:49:09;;;;;;;43.78;22.42;;;;;;;;;;5033519;28;20052;-62
2022/12/01 02:51:39;;;;;;;39.38;23.70;;;;;;;;;;5033621;28;20029;-62
2022/12/01 02:54:05;;;;;;;38.97;23.17;;;;;;;;;;5033070;28;20033;-63
2022/12/01 02:56:32;;;;;;;37.83;23.23;;;;;;;;;;5032309;28;20386;-63
2022/12/01 02:58:58;;;;;;;41.58;24.00;;;;;;;;;;5033231;28;20116;-64
2022/12/01 03:01:31;;;;;;;37.38;21.88;;;;;;;;;;5033313;28;20125;-66
2022/12/01 03:04:09;;;;;;;40.78;23.00;;;;;;;;;;5032777;28;20378;-64
2022/12/01 03:06:36;;;;;;;;;;;;;;;;;;5033283;28;20024;-63
2022/12/01 03:09:14;;;;;;;40.00;21.10;;;;;;;;;;5033391;28;19909;-64
2022/12/01 03:11:55;;;;;;;40.40;23.05;;;;;;;;;;5033170;28;20025;-65
2022/12/01 03:14:24;;;;;;;39.30;22.50;;;;;;;;;;5031737;28;20063;-63
2022/12/01 03:16:51;;;;;;;38.55;22.95;;;;;;;;;;5032915;28;20030;-64
2022/12/01 03:19:31;;;;;;;37.25;21.60;;;;;;;;;;5032966;28;20466;-63
2022/12/01 03:22:15;;;;;;;42.83;24.27;;;;;;;;;;5032663;28;20025;-63
2022/12/01 03:24:43;;;;;;;44.63;23.98;;;;;;;;;;5031280;28;20440;-65
2022/12/01 03:27:11;;;;;;;41.25;23.83;;;;;;;;;;5030692;28;20064;-63
2022/12/01 03:29:40;;;;;;;44.55;23.23;;;;;;;;;;5032818;28;20041;-64
2022/12/01 03:32:11;;;;;;;45.60;24.90;;;;;;;;;;5031386;28;20078;-64
2022/12/01 03:34:37;;;;;;;46.33;25.85;;;;;;;;;;5032783;28;20024;-64
2022/12/01 03:37:07;;;;;;;47.60;25.17;;;;;;;;;;5032421;28;20029;-60
2022/12/01 03:39:35;;;;;;;48.53;26.95;;;;;;;;;;5032401;28;20045;-64
2022/12/01 03:42:05;;;;;;;50.90;26.90;;;;;;;;;;5032393;28;20021;-62
2022/12/01 03:44:47;;;;;;;47.78;26.10;;;;;;;;;;5031106;28;20041;-63
2022/12/01 03:47:19;;;;;;;48.20;25.30;;;;;;;;;;5031186;28;20022;-64
2022/12/01 03:49:46;;;;;;;46.20;26.23;;;;;;;;;;5031148;28;20112;-62
2022/12/01 03:52:21;;;;;;;52.38;28.00;;;;;;;;;;5031241;28;20061;-63
2022/12/01 03:54:53;;;;;;;43.78;24.98;;;;;;;;;;5032097;28;20083;-62
2022/12/01 03:57:24;;;;;;;48.97;25.17;;;;;;;;;;5031443;28;20025;-61
2022/12/01 03:59:50;;;;;;;48.22;24.98;;;;;;;;;;5032221;28;20045;-62
2022/12/01 04:02:17;;;;;;;44.58;24.33;;;;;;;;;;5032188;28;20064;-62
2022/12/01 04:04:42;;;;;;;40.47;23.70;;;;;;;;;;5032259;28;20022;-63
2022/12/01 04:07:12;;;;;;;46.15;25.00;;;;;;;;;;5032242;28;20021;-62
2022/12/01 04:09:39;;;;;;;49.53;26.60;;;;;;;;;;5033265;28;20367;-62
2022/12/01 04:14:50;;;;;;;50.97;26.10;;;;;;;;;;5032647;28;20128;-61
2022/12/01 04:17:16;;;;;;;49.45;25.88;;;;;;;;;;5032389;28;20504;-62
2022/12/01 04:19:42;;;;;;;48.45;25.25;;;;;;;;;;5033294;28;20034;-62
2022/12/01 04:22:08;;;;;;;45.83;25.65;;;;;;;;;;5032593;28;20450;-62
2022/12/01 04:24:34;;;;;;;46.85;25.75;;;;;;;;;;5033390;28;20053;-62
2022/12/01 04:27:00;;;;;;;55.13;28.00;;;;;;;;;;5036421;28;20067;-62
2022/12/01 04:29:26;;;;;;;53.88;25.55;;;;;;;;;;5035353;28;20543;-62
2022/12/01 04:31:52;;;;;;;51.65;27.10;;;;;;;;;;5036069;28;20029;-63
2022/12/01 04:34:18;;;;;;;52.40;26.85;;;;;;;;;;5036480;28;20037;-63
2022/12/01 04:36:44;;;;;;;58.97;29.25;;;;;;;;;;5037036;28;20026;-63
2022/12/01 04:39:10;;;;;;;56.83;29.88;;;;;;;;;;5035635;28;20083;-62
2022/12/01 04:41:36;;;;;;;57.70;28.48;;;;;;;;;;5036244;28;20033;-62
2022/12/01 04:44:02;;;;;;;60.47;27.65;;;;;;;;;;5035554;28;20022;-65
2022/12/01 04:46:28;;;;;;;56.10;29.20;;;;;;;;;;5035645;28;20099;-63
2022/12/01 04:48:54;;;;;;;56.13;28.65;;;;;;;;;;5035379;28;20452;-62
2022/12/01 04:51:21;;;;;;;57.97;29.15;;;;;;;;;;5036453;28;20025;-62
2022/12/01 04:53:47;;;;;;;55.42;29.17;;;;;;;;;;5036355;28;20030;-60
2022/12/01 04:56:13;;;;;;;60.92;27.35;;;;;;;;;;5034778;28;20020;-63
2022/12/01 04:58:39;;;;;;;55.50;28.83;;;;;;;;;;5036508;28;20026;-63
2022/12/01 05:01:06;;;;;;;54.30;26.45;;;;;;;;;;5036588;28;20152;-64
2022/12/01 05:03:35;;;;;;;58.50;30.23;;;;;;;;;;5036074;28;20022;-63
2022/12/01 05:06:02;;;;;;;63.15;29.05;;;;;;;;;;5034138;28;20018;-64
2022/12/01 05:08:28;;;;;;;56.45;29.77;;;;;;;;;;5035870;28;20031;-64
2022/12/01 05:10:55;;;;;;;57.22;31.30;;;;;;;;;;5035807;28;20543;-64
2022/12/01 05:13:21;;;;;;;63.40;31.75;;;;;;;;;;5035720;28;20274;-64
2022/12/01 05:15:47;;;;;;;58.63;31.15;;;;;;;;;;5035316;28;20049;-64
2022/12/01 05:18:13;;;;;;;60.50;31.35;;;;;;;;;;5034927;28;20440;-64
2022/12/01 05:20:57;;;;;;;65.50;31.55;;;;;;;;;;5035361;28;20025;-61
2022/12/01 05:23:24;;;;;;;59.95;29.73;;;;;;;;;;5033419;28;20039;-63
2022/12/01 05:25:50;;;;;;;66.07;31.58;;;;;;;;;;5035189;28;20152;-62
2022/12/01 05:28:16;;;;;;;59.85;28.92;;;;;;;;;;5033863;28;20057;-65
2022/12/01 05:30:43;;;;;;;64.07;33.00;;;;;;;;;;5034943;28;20492;-64
2022/12/01 05:33:09;;;;;;;55.80;29.42;;;;;;;;;;5034608;28;20478;-63
2022/12/01 05:35:35;;;;;;;66.85;34.45;;;;;;;;;;5033451;28;20083;-64
2022/12/01 05:38:01;;;;;;;62.53;31.17;;;;;;;;;;5034811;28;20033;-64
2022/12/01 05:40:27;;;;;;;59.45;29.30;;;;;;;;;;5034713;28;20029;-65
2022/12/01 05:42:53;;;;;;;66.32;31.45;;;;;;;;;;5034602;28;20033;-64
2022/12/01 05:45:19;;;;;;;56.85;29.85;;;;;;;;;;5033033;28;20021;-62
2022/12/01 05:47:45;;;;;;;67.70;33.42;;;;;;;;;;5032938;28;20029;-63
2022/12/01 05:50:11;;;;;;;62.42;30.70;;;;;;;;;;5031144;28;20033;-63
2022/12/01 05:52:37;;;;;;;57.92;28.85;;;;;;;;;;5033614;28;20108;-63
2022/12/01 05:55:03;;;;;;;56.10;31.25;;;;;;;;;;5034393;28;20026;-62
2022/12/01 05:57:30;;;;;;;61.60;30.42;;;;;;;;;;5034648;28;20029;-63
2022/12/01 05:59:56;;;;;;;56.55;31.15;;;;;;;;;;5034653;28;20539;-65
2022/12/01 06:02:22;;;;;;;57.25;30.02;;;;;;;;;;5034592;28;20037;-63
2022/12/01 06:04:48;;;;;;;59.92;32.38;;;;;;;;;;5033932;28;20026;-63
2022/12/01 06:07:14;;;;;;;56.83;29.60;;;;;;;;;;5034244;28;20034;-62
2022/12/01 06:09:40;;;;;;;60.00;30.65;;;;;;;;;;5034705;28;20017;-64
2022/12/01 06:12:06;;;;;;;58.00;30.50;;;;;;;;;;5032879;28;20040;-63
2022/12/01 06:14:32;;;;;;;57.20;29.55;;;;;;;;;;5033122;28;20025;-62
2022/12/01 06:16:58;;;;;;;47.45;27.85;;;;;;;;;;5033410;28;20440;-64
2022/12/01 06:19:24;;;;;;;57.85;29.52;;;;;;;;;;5032626;28;20033;-62
2022/12/01 06:21:50;;;;;;;54.28;28.27;;;;;;;;;;5032478;28;20056;-63
2022/12/01 06:24:16;;;;;;;48.58;26.38;;;;;;;;;;5031966;28;20106;-64
2022/12/01 06:26:42;;;;;;;53.78;26.45;;;;;;;;;;5034003;28;20025;-60
2022/12/01 06:29:09;;;;;;;55.53;27.50;;;;;;;;;;5033798;28;20021;-63
2022/12/01 06:31:35;;;;;;;54.15;27.95;;;;;;;;;;5033561;28;20029;-62
2022/12/01 06:34:01;;;;;;;52.47;28.45;;;;;;;;;;5032322;28;20029;-62
2022/12/01 06:36:27;;;;;;;55.13;28.75;;;;;;;;;;5032265;28;20212;-63
2022/12/01 06:38:53;;;;;;;55.30;26.80;;;;;;;;;;5033213;28;20042;-64
2022/12/01 06:41:19;;;;;;;48.28;26.17;;;;;;;;;;5031749;28;20025;-62
2022/12/01 06:43:45;;;;;;;52.13;26.45;;;;;;;;;;5032771;28;20029;-64
2022/12/01 06:46:11;;;;;;;48.88;26.33;;;;;;;;;;5032534;28;20049;-64
2022/12/01 06:48:37;;;;;;;53.17;25.35;;;;;;;;;;5032573;28;20468;-62
2022/12/01 06:51:03;;;;;;;47.40;24.75;;;;;;;;;;5031083;28;20049;-63
2022/12/01 06:53:30;;;;;;;43.92;23.13;;;;;;;;;;5030738;28;20029;-64
2022/12/01 06:56:03;;;;;;;43.85;23.08;;;;;;;;;;5031548;28;20021;-63
2022/12/01 06:58:29;;;;;;;42.42;23.02;;;;;;;;;;5032819;28;20712;-63
2022/12/01 07:00:56;;;;;;;40.90;21.52;;;;;;;;;;5033792;28;20117;-64
2022/12/01 07:03:22;;;;;;;40.10;22.15;;;;;;;;;;5032922;28;20474;-65
2022/12/01 07:05:58;;;;;;;39.60;23.13;;;;;;;;;;5033736;28;20028;-66
2022/12/01 07:08:24;;;;;;;43.70;22.00;;;;;;;;;;5032602;28;20022;-61
2022/12/01 07:11:01;;;;;;;41.85;22.65;;;;;;;;;;5032328;28;20032;-60
2022/12/01 07:13:27;;;;;;;43.40;22.55;;;;;;;;;;5031924;28;20441;-64
2022/12/01 07:15:54;;;;;;;41.10;21.60;;;;;;;;;;5033670;28;20037;-56
2022/12/01 07:18:20;;;;;;;36.85;22.02;;;;;;;;;;5031573;28;20032;-62
2022/12/01 07:20:46;;;;;;;43.40;23.73;;;;;;;;;;5032248;28;20037;-63
2022/12/01 07:23:12;;;;;;;41.95;22.88;;;;;;;;;;5032125;28;20114;-62
2022/12/01 07:25:38;;;;;;;39.20;22.42;;;;;;;;;;5032204;28;20036;-68
2022/12/01 07:28:04;;;;;;;40.00;21.67;;;;;;;;;;5032679;28;20389;-62
2022/12/01 07:30:30;;;;;;;38.83;21.83;;;;;;;;;;5030865;28;20441;-58
2022/12/01 07:32:56;;;;;;;39.08;22.80;;;;;;;;;;5032362;28;20087;-68
2022/12/01 07:35:22;;;;;;;38.72;21.65;;;;;;;;;;5032306;28;20021;-62
2022/12/01 07:37:53;;;;;;;38.40;18.88;;;;;;;;;;5031576;28;20040;-62
2022/12/01 07:40:19;;;;;;;36.58;19.30;;;;;;;;;;5030923;28;20072;-63
2022/12/01 07:42:45;;;;;;;36.17;20.70;;;;;;;;;;5032140;28;20033;-61
2022/12/01 07:45:11;;;;;;;41.50;20.65;;;;;;;;;;5030815;28;20108;-63
2022/12/01 07:47:37;;;;;;;42.78;20.92;;;;;;;;;;5031024;28;20052;-63
2022/12/01 07:50:03;;;;;;;37.58;20.42;;;;;;;;;;5032491;28;20050;-66
2022/12/01 07:52:29;;;;;;;42.78;20.20;;;;;;;;;;5032141;28;20032;-65
2022/12/01 07:54:55;;;;;;;35.13;20.42;;;;;;;;;;5030427;28;20110;-65
2022/12/01 07:57:22;;;;;;;37.60;22.45;;;;;;;;;;5031056;28;20033;-63
2022/12/01 07:59:48;;;;;;;35.00;20.02;;;;;;;;;;5031954;28;20037;-62
2022/12/01 08:02:14;;;;;;;37.58;20.15;;;;;;;;;;5030714;28;20106;-61
2022/12/01 08:04:42;;;;;;;40.80;22.13;;;;;;;;;;5030969;28;20036;-62
2022/12/01 08:07:08;;;;;;;42.88;20.25;;;;;;;;;;5031305;28;20025;-64
2022/12/01 08:09:34;;;;;;;34.90;20.52;;;;;;;;;;5032840;28;20028;-63
2022/12/01 08:12:00;;;;;;;36.58;20.38;;;;;;;;;;5032960;28;20588;-66
2022/12/01 08:14:26;;;;;;;36.17;20.48;;;;;;;;;;5032519;28;20033;-65
2022/12/01 08:16:52;;;;;;;36.15;22.50;;;;;;;;;;5032374;28;20029;-65
2022/12/01 08:19:18;;;;;;;39.65;20.77;;;;;;;;;;5031598;28;20438;-65
2022/12/01 08:21:44;;;;;;;40.88;22.80;;;;;;;;;;5032237;28;20033;-66
2022/12/01 08:24:10;;;;;;;41.22;21.23;;;;;;;;;;5032581;28;20022;-66
2022/12/01 08:26:36;;;;;;;41.85;22.35;;;;;;;;;;5030962;28;20112;-65
2022/12/01 08:29:02;;;;;;;41.63;22.33;;;;;;;;;;5031212;28;20375;-65
2022/12/01 08:31:30;;;;;;;43.30;22.75;;;;;;;;;;5031504;28;20022;-65
2022/12/01 08:33:56;;;;;;;45.47;24.77;;;;;;;;;;5032543;28;20022;-65
2022/12/01 08:36:23;;;;;;;40.83;22.38;;;;;;;;;;5032310;28;20065;-65
2022/12/01 08:38:51;;;;;;;40.78;23.45;;;;;;;;;;5032681;28;20038;-64
2022/12/01 08:41:17;;;;;;;45.03;23.90;;;;;;;;;;5031067;28;20025;-68
2022/12/01 08:43:43;;;;;;;49.20;25.02;;;;;;;;;;5032139;28;20037;-66
2022/12/01 08:46:10;;;;;;;49.63;28.75;;;;;;;;;;5032644;28;20022;-65
2022/12/01 08:48:37;;;;;;;49.85;26.80;;;;;;;;;;5032899;28;20014;-66
2022/12/01 08:51:07;;;;;;;52.13;29.30;;;;;;;;;;5032579;28;20022;-67
2022/12/01 08:53:34;;;;;;;45.47;27.83;;;;;;;;;;5019384;28;20025;-65
2022/12/01 08:56:01;;;;;;;46.83;27.90;;;;;;;;;;5031118;28;20076;-66
2022/12/01 08:58:27;;;;;;;51.35;30.33;;;;;;;;;;5032699;28;20440;-66
2022/12/01 09:00:53;;;;;;;52.65;28.20;;;;;;;;;;5032735;28;20452;-65
2022/12/01 09:03:19;;;;;;;48.45;29.98;;;;;;;;;;5031224;28;20394;-68
2022/12/01 09:05:45;;;;;;;56.65;30.55;;;;;;;;;;5033654;28;20448;-66
2022/12/01 09:08:30;;;;;;;50.58;30.95;;;;;;;;;;5030619;28;20075;-66
2022/12/01 09:10:56;;;;;;;47.95;27.77;;;;;;;;;;5031903;28;20029;-65
2022/12/01 09:13:22;;;;;;;48.58;28.23;;;;;;;;;;5033903;28;20030;-66
2022/12/01 09:16:02;;;;;;;53.80;30.00;;;;;;;;;;5033856;28;20029;-66
2022/12/01 09:18:28;;;;;;;57.28;30.60;;;;;;;;;;5035254;28;20421;-68
2022/12/01 09:20:54;;;;;;;57.60;29.95;;;;;;;;;;5035127;28;20021;-66
2022/12/01 09:23:21;;;;;;;53.22;30.80;;;;;;;;;;5034348;28;20036;-67
2022/12/01 09:25:48;;;;;;;52.08;28.88;;;;;;;;;;5035427;28;20036;-66
2022/12/01 09:28:14;;;;;;;60.35;29.58;;;;;;;;;;5034980;28;20083;-66
2022/12/01 09:30:40;;;;;;;55.50;32.20;;;;;;;;;;5034653;28;20037;-65
2022/12/01 09:33:06;;;;;;;56.85;31.45;;;;;;;;;;5034450;28;20111;-66
2022/12/01 09:35:32;;;;;;;54.90;31.17;;;;;;;;;;5034028;28;20366;-66
2022/12/01 09:37:59;;;;;;;57.30;30.90;;;;;;;;;;5033455;28;20044;-66
2022/12/01 09:40:28;;;;;;;55.50;30.30;;;;;;;;;;5035063;28;20501;-66
2022/12/01 09:42:54;;;;;;;55.72;33.10;;;;;;;;;;5033643;28;20505;-65
2022/12/01 09:45:25;;;;;;;55.30;32.97;;;;;;;;;;5033686;28;20120;-66
2022/12/01 09:47:53;;;;;;;64.00;34.15;;;;;;;;;;5033429;28;20018;-66
2022/12/01 09:50:24;;;;;;;57.00;32.22;;;;;;;;;;5034466;28;20026;-65
2022/12/01 09:52:57;;;;;;;61.58;32.58;;;;;;;;;;5032527;28;20056;-66
2022/12/01 09:55:24;;;;;;;62.78;33.47;;;;;;;;;;5033211;28;20025;-66
2022/12/01 09:57:52;;;;;;;67.97;34.38;;;;;;;;;;5033119;28;20038;-66
2022/12/01 10:00:22;;;;;;;62.55;34.75;;;;;;;;;;5034553;28;20103;-64
2022/12/01 10:02:48;;;;;;;66.50;36.17;;;;;;;;;;5033636;28;20029;-66
2022/12/01 10:05:18;;;;;;;76.20;38.05;;;;;;;;;;5033501;28;20048;-64
2022/12/01 10:07:47;;;;;;;63.70;34.58;;;;;;;;;;5032919;28;20149;-63
2022/12/01 10:10:16;;;;;;;73.72;37.38;;;;;;;;;;5033765;28;20026;-66
2022/12/01 10:12:43;;;;;;;64.95;37.47;;;;;;;;;;5033805;28;20022;-65
2022/12/01 10:15:12;;;;;;;71.47;39.25;;;;;;;;;;5034201;28;20032;-65
2022/12/01 10:17:44;;;;;;;72.28;39.50;;;;;;;;;;5034289;28;20134;-66
2022/12/01 10:20:14;;;;;;;64.75;37.35;;;;;;;;;;5034737;28;20033;-66
2022/12/01 10:22:59;;;;;;;69.72;37.67;;;;;;;;;;5033993;28;20490;-66
2022/12/01 10:25:33;;;;;;;71.97;38.92;;;;;;;;;;5033737;28;20021;-66
2022/12/01 10:27:59;;;;;;;70.28;36.33;;;;;;;;;;5034081;28;20053;-64
2022/12/01 10:30:25;;;;;;;74.32;40.20;;;;;;;;;;5032957;28;20025;-66
2022/12/01 10:33:15;;;;;;;64.45;36.92;;;;;;;;;;5033879;28;20029;-66
2022/12/01 10:35:41;;;;;;;70.32;37.63;;;;;;;;;;5023062;28;20033;-66
2022/12/01 10:38:12;;;;;;;65.32;36.90;;;;;;;;;;5033308;28;20047;-67
2022/12/01 10:40:40;;;;;;;68.28;38.50;;;;;;;;;;5034763;28;20029;-66
2022/12/01 10:43:09;;;;;;;71.10;39.50;;;;;;;;;;5032821;28;20116;-66
2022/12/01 10:45:37;;;;;;;65.90;39.05;;;;;;;;;;5033921;28;20082;-66
2022/12/01 10:48:06;;;;;;;66.90;37.73;;;;;;;;;;5033930;28;20389;-67
2022/12/01 10:50:33;;;;;;;63.58;36.55;;;;;;;;;;5033880;28;20022;-66
2022/12/01 10:52:59;;;;;;;69.78;39.33;;;;;;;;;;5033791;28;20100;-67
2022/12/01 10:55:30;;;;;;;67.88;37.53;;;;;;;;;;5031939;28;20048;-66
2022/12/01 10:57:57;;;;;;;67.20;38.05;;;;;;;;;;5032152;28;20029;-66
2022/12/01 11:00:28;;;;;;;59.17;35.55;;;;;;;;;;5034231;28;20030;-66
2022/12/01 11:02:54;;;;;;;62.88;35.38;;;;;;;;;;5032264;28;20029;-66
2022/12/01 11:05:22;;;;;;;64.45;36.45;;;;;;;;;;5032999;28;20081;-66
2022/12/01 11:07:48;;;;;;;;;;;;;;;;;;5033822;28;20049;-66
2022/12/01 11:10:19;;;;;;;63.78;34.33;;;;;;;;;;5031868;28;19955;-67
2022/12/01 11:12:52;;;;;;;62.63;34.10;;;;;;;;;;5032821;28;20442;-67
2022/12/01 11:15:21;;;;;;;69.75;36.55;;;;;;;;;;5032596;28;20093;-64
2022/12/01 11:17:47;;;;;;;60.55;35.50;;;;;;;;;;5032728;28;20386;-65
2022/12/01 11:20:27;;;;;;;62.33;35.15;;;;;;;;;;5032788;28;20040;-66
2022/12/01 11:23:14;;;;;;;58.67;33.42;;;;;;;;;;5032558;28;20116;-65
2022/12/01 11:25:40;;;;;;;60.22;35.20;;;;;;;;;;5026478;28;20111;-64
2022/12/01 11:28:06;;;;;;;59.72;34.28;;;;;;;;;;5032525;28;20026;-65
2022/12/01 11:30:32;;;;;;;57.70;34.60;;;;;;;;;;5033007;28;20029;-66
2022/12/01 11:32:59;;;;;;;61.35;35.20;;;;;;;;;;5032260;28;20103;-66
2022/12/01 11:35:27;;;;;;;57.72;33.45;;;;;;;;;;5031094;28;20180;-64
2022/12/01 11:37:58;;;;;;;62.50;35.10;;;;;;;;;;5044225;22;20079;-67
2022/12/01 11:40:29;;;;;;;59.00;33.15;;;;;;;;;;5011803;28;20334;-69
2022/12/01 11:43:00;;;;;;;58.30;36.22;;;;;;;;;;5010401;28;20034;-69
2022/12/01 11:45:35;;;;;;;62.22;37.15;;;;;;;;;;5010813;28;20371;-69
2022/12/01 11:48:01;;;;;;;63.97;38.58;;;;;;;;;;5010643;28;20041;-68
2022/12/01 11:50:29;;;;;;;69.57;37.17;;;;;;;;;;5010352;28;20049;-67
2022/12/01 11:52:55;;;;;;;67.40;40.33;;;;;;;;;;4995858;28;20522;-70
2022/12/01 11:55:23;;;;;;;68.22;36.80;;;;;;;;;;4990283;28;20030;-69
2022/12/01 11:57:52;;;;;;;62.25;35.75;;;;;;;;;;4990892;28;20059;-68
2022/12/01 12:00:19;;;;;;;65.18;37.78;;;;;;;;;;4995336;28;20026;-67
2022/12/01 12:02:48;;;;;;;65.23;36.43;;;;;;;;;;4992490;28;20032;-70
2022/12/01 12:05:14;;;;;;;67.90;38.10;;;;;;;;;;5003737;28;20034;-69
2022/12/01 12:08:04;;;;;;;67.72;38.13;;;;;;;;;;5009188;28;20487;-68
2022/12/01 12:10:33;;;;;;;64.28;36.75;;;;;;;;;;5010184;28;20014;-69
2022/12/01 12:13:02;;;;;;;62.20;34.60;;;;;;;;;;5010065;28;20505;-69
2022/12/01 12:15:37;;;;;;;61.78;34.88;;;;;;;;;;5009954;28;20091;-70
2022/12/01 12:18:03;;;;;;;59.42;34.60;;;;;;;;;;5011804;28;20040;-68
2022/12/01 12:20:34;;;;;;;59.70;34.65;;;;;;;;;;5010356;28;20026;-68
2022/12/01 12:23:18;;;;;;;58.83;33.95;;;;;;;;;;5010253;28;20033;-68
2022/12/01 12:25:47;;;;;;;57.00;32.50;;;;;;;;;;5010390;28;20711;-65
2022/12/01 12:28:19;;;;;;;58.33;33.95;;;;;;;;;;5010187;28;20022;-68
2022/12/01 12:30:54;;;;;;;58.70;33.80;;;;;;;;;;5010582;28;20022;-66
2022/12/01 12:33:27;;;;;;;54.72;32.22;;;;;;;;;;5010724;28;20111;-67
2022/12/01 12:36:00;;;;;;;63.20;35.65;;;;;;;;;;5010664;28;20033;-67
2022/12/01 12:38:26;;;;;;;55.80;32.15;;;;;;;;;;5010098;28;20092;-66
2022/12/01 12:40:57;;;;;;;59.97;36.08;;;;;;;;;;5009175;28;20041;-65
2022/12/01 12:43:33;;;;;;;55.08;33.72;;;;;;;;;;5009969;28;20026;-67
2022/12/01 12:46:10;;;;;;;58.95;34.67;;;;;;;;;;4971359;28;20667;-66
2022/12/01 12:48:55;;;;;;;61.15;35.22;;;;;;;;;;4974772;28;20030;-67
2022/12/01 12:51:30;;;;;;;61.60;36.00;;;;;;;;;;4976806;28;20191;-66
2022/12/01 12:54:09;;;;;;;62.72;35.67;;;;;;;;;;4998194;28;20101;-67
2022/12/01 12:56:35;;;;;;;54.47;33.25;;;;;;;;;;5016076;28;20045;-66
2022/12/01 12:59:22;;;;;;;59.00;33.03;;;;;;;;;;5014343;28;20128;-68
2022/12/01 13:01:54;;;;;;;58.30;32.83;;;;;;;;;;5001536;28;20490;-66
2022/12/01 13:04:43;;;;;;;55.53;33.40;;;;;;;;;;5014111;28;20053;-67
2022/12/01 13:07:20;;;;;;;55.75;33.33;;;;;;;;;;5004290;28;20498;-66
2022/12/01 13:09:48;;;;;;;56.97;33.03;;;;;;;;;;5014189;28;20022;-66
2022/12/01 13:12:22;;;;;;;54.10;32.08;;;;;;;;;;5013678;28;20026;-68
2022/12/01 13:14:50;;;;;;;57.50;33.67;;;;;;;;;;5011989;28;20109;-66
2022/12/01 13:17:27;;;;;;;55.13;32.28;;;;;;;;;;5013611;28;20404;-68
2022/12/01 13:19:53;;;;;;;58.90;34.45;;;;;;;;;;5012317;28;20022;-68
2022/12/01 13:22:23;;;;;;;55.17;31.77;;;;;;;;;;5012931;28;20034;-66
2022/12/01 13:24:49;;;;;;;50.47;30.40;;;;;;;;;;4643692;28;9999815;-67
2022/12/01 13:27:20;;;;;;;53.33;33.28;;;;;;;;;;4990808;28;20046;-67
2022/12/01 13:29:51;;;;;;;58.92;32.28;;;;;;;;;;4990759;28;20018;-66
2022/12/01 13:32:26;;;;;;;64.18;33.90;;;;;;;;;;4985416;28;20034;-67
2022/12/01 13:34:52;;;;;;;57.40;31.92;;;;;;;;;;4992194;28;20042;-68
2022/12/01 13:37:29;;;;;;;57.20;33.58;;;;;;;;;;5008951;28;20061;-67
2022/12/01 13:39:56;;;;;;;56.45;32.42;;;;;;;;;;5009022;28;20041;-67
2022/12/01 13:42:24;;;;;;;55.95;33.72;;;;;;;;;;5005167;28;20064;-66
2022/12/01 13:44:55;;;;;;;53.78;31.83;;;;;;;;;;5008813;28;20088;-67
2022/12/01 13:47:24;;;;;;;53.50;32.55;;;;;;;;;;5008955;28;20112;-67
2022/12/01 13:49:51;;;;;;;60.30;32.63;;;;;;;;;;4993131;28;20424;-67
2022/12/01 13:52:20;;;;;;;59.25;34.70;;;;;;;;;;4990252;28;20076;-67
2022/12/01 13:55:00;;;;;;;57.20;33.03;;;;;;;;;;4992356;28;20026;-66
2022/12/01 13:57:28;;;;;;;62.22;33.25;;;;;;;;;;4992400;28;20439;-65
2022/12/01 14:00:00;;;;;;;60.35;35.85;;;;;;;;;;4970703;28;20239;-66
2022/12/01 14:02:27;;;;;;;55.75;33.75;;;;;;;;;;4990354;28;20026;-65
2022/12/01 14:04:53;;;;;;;52.92;32.88;;;;;;;;;;5010831;28;20033;-66
2022/12/01 14:07:22;;;;;;;60.60;35.13;;;;;;;;;;4651830;28;9999707;-66
2022/12/01 14:09:52;;;;;;;57.10;32.08;;;;;;;;;;4990330;28;20029;-66
2022/12/01 14:12:21;;;;;;;63.53;34.78;;;;;;;;;;4988608;28;20141;-67
2022/12/01 14:14:58;;;;;;;65.43;35.42;;;;;;;;;;4990036;28;20026;-68
2022/12/01 14:17:35;;;;;;;60.65;34.08;;;;;;;;;;4989704;28;20030;-67
2022/12/01 14:20:07;;;;;;;62.10;34.08;;;;;;;;;;4990338;28;20042;-66
2022/12/01 14:22:33;;;;;;;61.55;35.35;;;;;;;;;;4990343;28;20049;-66
2022/12/01 14:24:59;;;;;;;64.30;34.72;;;;;;;;;;4997627;28;20025;-67
2022/12/01 14:27:36;;;;;;;59.13;33.42;;;;;;;;;;4990536;28;20483;-66
2022/12/01 14:30:20;;;;;;;57.80;32.50;;;;;;;;;;4990773;28;20038;-66